sensor_id;sensor_type;location;lat;lon;timestamp;P1;P2;P0
76661;PMS5003;65579;45.534;6.212;2023-07-08T00:02:19;12;10;
76661;PMS5003;65579;45.534;6.212;2023-07-08T00:04:47;10;9;
76661;PMS5003;65579;45.534;6.212;2023-07-08T00:07:13;11;11;
76661;PMS5003;65579;45.534;6.212;2023-07-08T00:09:39;15;14;
76661;PMS5003;65579;45.534;6.212;2023-07-08T00:12:07;9;9;
76661;PMS5003;65579;45.534;6.212;2023-07-08T00:14:29;12;11;
76661;PMS5003;65579;45.534;6.212;2023-07-08T00:16:54;10;10;
76661;PMS5003;65579;45.534;6.212;2023-07-08T00:19:20;15;15;
76661;PMS5003;65579;45.534;6.212;2023-07-08T00:21:45;10;9;
76661;PMS5003;65579;45.534;6.212;2023-07-08T00:24:12;11;11;
76661;PMS5003;65579;45.534;6.212;2023-07-08T00:26:37;10;9;
76661;PMS5003;65579;45.534;6.212;2023-07-08T00:29:02;9;7;
76661;PMS5003;65579;45.534;6.212;2023-07-08T00:31:28;11;11;
76661;PMS5003;65579;45.534;6.212;2023-07-08T00:33:54;12;10;
76661;PMS5003;65579;45.534;6.212;2023-07-08T00:36:17;14;10;
76661;PMS5003;65579;45.534;6.212;2023-07-08T00:38:43;7;7;
76661;PMS5003;65579;45.534;6.212;2023-07-08T00:41:11;12;9;
76661;PMS5003;65579;45.534;6.212;2023-07-08T00:43:35;11;11;
76661;PMS5003;65579;45.534;6.212;2023-07-08T00:46:15;8;8;
76661;PMS5003;65579;45.534;6.212;2023-07-08T00:48:28;10;9;
76661;PMS5003;65579;45.534;6.212;2023-07-08T00:50:51;7;7;
76661;PMS5003;65579;45.534;6.212;2023-07-08T00:53:23;8;8;
76661;PMS5003;65579;45.534;6.212;2023-07-08T00:55:43;12;9;
76661;PMS5003;65579;45.534;6.212;2023-07-08T00:58:08;15;13;
76661;PMS5003;65579;45.534;6.212;2023-07-08T01:00:33;9;9;
76661;PMS5003;65579;45.534;6.212;2023-07-08T01:02:59;12;12;
76661;PMS5003;65579;45.534;6.212;2023-07-08T01:05:25;8;8;
76661;PMS5003;65579;45.534;6.212;2023-07-08T01:07:51;9;9;
76661;PMS5003;65579;45.534;6.212;2023-07-08T01:10:17;10;10;
76661;PMS5003;65579;45.534;6.212;2023-07-08T01:12:43;14;11;
76661;PMS5003;65579;45.534;6.212;2023-07-08T01:15:08;11;10;
76661;PMS5003;65579;45.534;6.212;2023-07-08T01:17:33;10;9;
76661;PMS5003;65579;45.534;6.212;2023-07-08T01:19:59;9;9;
76661;PMS5003;65579;45.534;6.212;2023-07-08T01:22:25;9;9;
76661;PMS5003;65579;45.534;6.212;2023-07-08T01:24:50;9;9;
76661;PMS5003;65579;45.534;6.212;2023-07-08T01:27:16;11;11;
76661;PMS5003;65579;45.534;6.212;2023-07-08T01:29:41;14;13;
76661;PMS5003;65579;45.534;6.212;2023-07-08T01:32:09;12;10;
76661;PMS5003;65579;45.534;6.212;2023-07-08T01:34:32;10;10;
76661;PMS5003;65579;45.534;6.212;2023-07-08T01:36:59;14;14;
76661;PMS5003;65579;45.534;6.212;2023-07-08T01:39:25;22;20;
76661;PMS5003;65579;45.534;6.212;2023-07-08T01:41:50;13;13;
76661;PMS5003;65579;45.534;6.212;2023-07-08T01:44:21;10;10;
76661;PMS5003;65579;45.534;6.212;2023-07-08T01:46:41;13;12;
76661;PMS5003;65579;45.534;6.212;2023-07-08T01:49:06;11;11;
76661;PMS5003;65579;45.534;6.212;2023-07-08T01:51:32;13;11;
76661;PMS5003;65579;45.534;6.212;2023-07-08T01:53:58;15;13;
76661;PMS5003;65579;45.534;6.212;2023-07-08T01:56:23;13;13;
76661;PMS5003;65579;45.534;6.212;2023-07-08T01:58:49;15;15;
76661;PMS5003;65579;45.534;6.212;2023-07-08T02:01:15;15;13;
76661;PMS5003;65579;45.534;6.212;2023-07-08T02:03:41;14;14;
76661;PMS5003;65579;45.534;6.212;2023-07-08T02:06:07;14;12;
76661;PMS5003;65579;45.534;6.212;2023-07-08T02:08:32;13;13;
76661;PMS5003;65579;45.534;6.212;2023-07-08T02:10:58;12;12;
76661;PMS5003;65579;45.534;6.212;2023-07-08T02:13:23;11;11;
76661;PMS5003;65579;45.534;6.212;2023-07-08T02:15:49;15;15;
76661;PMS5003;65579;45.534;6.212;2023-07-08T02:18:14;11;11;
76661;PMS5003;65579;45.534;6.212;2023-07-08T02:20:39;13;12;
76661;PMS5003;65579;45.534;6.212;2023-07-08T02:23:05;11;10;
76661;PMS5003;65579;45.534;6.212;2023-07-08T02:25:30;14;14;
76661;PMS5003;65579;45.534;6.212;2023-07-08T02:27:56;14;14;
76661;PMS5003;65579;45.534;6.212;2023-07-08T02:30:21;13;10;
76661;PMS5003;65579;45.534;6.212;2023-07-08T02:32:47;15;12;
76661;PMS5003;65579;45.534;6.212;2023-07-08T02:35:13;12;12;
76661;PMS5003;65579;45.534;6.212;2023-07-08T02:37:38;18;18;
76661;PMS5003;65579;45.534;6.212;2023-07-08T02:40:05;12;11;
76661;PMS5003;65579;45.534;6.212;2023-07-08T02:42:30;11;11;
76661;PMS5003;65579;45.534;6.212;2023-07-08T02:44:55;13;12;
76661;PMS5003;65579;45.534;6.212;2023-07-08T02:47:21;10;9;
76661;PMS5003;65579;45.534;6.212;2023-07-08T02:49:46;15;14;
76661;PMS5003;65579;45.534;6.212;2023-07-08T02:52:12;10;10;
76661;PMS5003;65579;45.534;6.212;2023-07-08T02:54:38;16;13;
76661;PMS5003;65579;45.534;6.212;2023-07-08T02:57:04;11;11;
76661;PMS5003;65579;45.534;6.212;2023-07-08T02:59:30;12;11;
76661;PMS5003;65579;45.534;6.212;2023-07-08T03:01:55;13;12;
76661;PMS5003;65579;45.534;6.212;2023-07-08T03:04:21;12;12;
76661;PMS5003;65579;45.534;6.212;2023-07-08T03:06:49;10;10;
76661;PMS5003;65579;45.534;6.212;2023-07-08T03:09:12;13;11;
76661;PMS5003;65579;45.534;6.212;2023-07-08T03:11:38;11;11;
76661;PMS5003;65579;45.534;6.212;2023-07-08T03:14:04;11;11;
76661;PMS5003;65579;45.534;6.212;2023-07-08T03:16:30;13;12;
76661;PMS5003;65579;45.534;6.212;2023-07-08T03:18:56;13;13;
76661;PMS5003;65579;45.534;6.212;2023-07-08T03:21:21;12;10;
76661;PMS5003;65579;45.534;6.212;2023-07-08T03:23:47;11;11;
76661;PMS5003;65579;45.534;6.212;2023-07-08T03:26:13;17;16;
76661;PMS5003;65579;45.534;6.212;2023-07-08T03:28:38;11;10;
76661;PMS5003;65579;45.534;6.212;2023-07-08T03:31:05;10;10;
76661;PMS5003;65579;45.534;6.212;2023-07-08T03:33:30;10;10;
76661;PMS5003;65579;45.534;6.212;2023-07-08T03:35:55;14;11;
76661;PMS5003;65579;45.534;6.212;2023-07-08T03:38:21;18;17;
76661;PMS5003;65579;45.534;6.212;2023-07-08T03:40:47;12;10;
76661;PMS5003;65579;45.534;6.212;2023-07-08T03:43:12;15;15;
76661;PMS5003;65579;45.534;6.212;2023-07-08T03:45:37;10;10;
76661;PMS5003;65579;45.534;6.212;2023-07-08T03:48:03;12;12;
76661;PMS5003;65579;45.534;6.212;2023-07-08T03:50:29;10;9;
76661;PMS5003;65579;45.534;6.212;2023-07-08T03:52:54;17;16;
76661;PMS5003;65579;45.534;6.212;2023-07-08T03:55:20;12;12;
76661;PMS5003;65579;45.534;6.212;2023-07-08T03:57:46;12;12;
76661;PMS5003;65579;45.534;6.212;2023-07-08T04:00:12;12;12;
76661;PMS5003;65579;45.534;6.212;2023-07-08T04:02:38;14;13;
76661;PMS5003;65579;45.534;6.212;2023-07-08T04:05:03;13;13;
76661;PMS5003;65579;45.534;6.212;2023-07-08T04:07:29;15;14;
76661;PMS5003;65579;45.534;6.212;2023-07-08T04:09:54;14;14;
76661;PMS5003;65579;45.534;6.212;2023-07-08T04:12:20;15;13;
76661;PMS5003;65579;45.534;6.212;2023-07-08T04:14:46;12;12;
76661;PMS5003;65579;45.534;6.212;2023-07-08T04:17:11;15;15;
76661;PMS5003;65579;45.534;6.212;2023-07-08T04:19:37;13;12;
76661;PMS5003;65579;45.534;6.212;2023-07-08T04:22:03;15;13;
76661;PMS5003;65579;45.534;6.212;2023-07-08T04:24:28;12;12;
76661;PMS5003;65579;45.534;6.212;2023-07-08T04:26:54;13;11;
76661;PMS5003;65579;45.534;6.212;2023-07-08T04:29:21;11;11;
76661;PMS5003;65579;45.534;6.212;2023-07-08T04:31:45;15;12;
76661;PMS5003;65579;45.534;6.212;2023-07-08T04:34:10;12;11;
76661;PMS5003;65579;45.534;6.212;2023-07-08T04:36:36;13;12;
76661;PMS5003;65579;45.534;6.212;2023-07-08T04:39:02;12;12;
76661;PMS5003;65579;45.534;6.212;2023-07-08T04:41:27;15;13;
76661;PMS5003;65579;45.534;6.212;2023-07-08T04:43:53;11;11;
76661;PMS5003;65579;45.534;6.212;2023-07-08T04:46:20;15;14;
76661;PMS5003;65579;45.534;6.212;2023-07-08T04:48:44;13;13;
76661;PMS5003;65579;45.534;6.212;2023-07-08T04:51:10;12;12;
76661;PMS5003;65579;45.534;6.212;2023-07-08T04:53:36;9;9;
76661;PMS5003;65579;45.534;6.212;2023-07-08T04:56:02;11;10;
76661;PMS5003;65579;45.534;6.212;2023-07-08T04:58:27;10;10;
76661;PMS5003;65579;45.534;6.212;2023-07-08T05:00:52;13;13;
76661;PMS5003;65579;45.534;6.212;2023-07-08T05:03:18;9;9;
76661;PMS5003;65579;45.534;6.212;2023-07-08T05:05:44;9;9;
76661;PMS5003;65579;45.534;6.212;2023-07-08T05:08:12;10;10;
76661;PMS5003;65579;45.534;6.212;2023-07-08T05:10:34;14;14;
76661;PMS5003;65579;45.534;6.212;2023-07-08T05:13:00;13;13;
76661;PMS5003;65579;45.534;6.212;2023-07-08T05:15:26;9;8;
76661;PMS5003;65579;45.534;6.212;2023-07-08T05:17:52;12;12;
76661;PMS5003;65579;45.534;6.212;2023-07-08T05:20:18;10;10;
76661;PMS5003;65579;45.534;6.212;2023-07-08T05:22:43;10;10;
76661;PMS5003;65579;45.534;6.212;2023-07-08T05:25:09;12;11;
76661;PMS5003;65579;45.534;6.212;2023-07-08T05:27:34;14;14;
76661;PMS5003;65579;45.534;6.212;2023-07-08T05:30:00;13;13;
76661;PMS5003;65579;45.534;6.212;2023-07-08T05:32:26;12;12;
76661;PMS5003;65579;45.534;6.212;2023-07-08T05:34:52;13;13;
76661;PMS5003;65579;45.534;6.212;2023-07-08T05:37:17;12;12;
76661;PMS5003;65579;45.534;6.212;2023-07-08T05:39:43;10;10;
76661;PMS5003;65579;45.534;6.212;2023-07-08T05:42:08;14;14;
76661;PMS5003;65579;45.534;6.212;2023-07-08T05:44:34;15;14;
76661;PMS5003;65579;45.534;6.212;2023-07-08T05:46:59;14;12;
76661;PMS5003;65579;45.534;6.212;2023-07-08T05:49:25;10;10;
76661;PMS5003;65579;45.534;6.212;2023-07-08T05:51:51;12;12;
76661;PMS5003;65579;45.534;6.212;2023-07-08T05:54:16;11;11;
76661;PMS5003;65579;45.534;6.212;2023-07-08T05:56:42;10;10;
76661;PMS5003;65579;45.534;6.212;2023-07-08T05:59:07;11;11;
76661;PMS5003;65579;45.534;6.212;2023-07-08T06:01:35;14;14;
76661;PMS5003;65579;45.534;6.212;2023-07-08T06:04:01;13;12;
76661;PMS5003;65579;45.534;6.212;2023-07-08T06:06:26;14;13;
76661;PMS5003;65579;45.534;6.212;2023-07-08T06:08:50;12;11;
76661;PMS5003;65579;45.534;6.212;2023-07-08T06:11:15;15;15;
76661;PMS5003;65579;45.534;6.212;2023-07-08T06:13:40;15;15;
76661;PMS5003;65579;45.534;6.212;2023-07-08T06:16:06;12;12;
76661;PMS5003;65579;45.534;6.212;2023-07-08T06:18:31;10;10;
76661;PMS5003;65579;45.534;6.212;2023-07-08T06:20:57;15;13;
76661;PMS5003;65579;45.534;6.212;2023-07-08T06:23:22;13;11;
76661;PMS5003;65579;45.534;6.212;2023-07-08T06:25:47;13;12;
76661;PMS5003;65579;45.534;6.212;2023-07-08T06:28:13;11;11;
76661;PMS5003;65579;45.534;6.212;2023-07-08T06:30:38;13;12;
76661;PMS5003;65579;45.534;6.212;2023-07-08T06:33:04;14;13;
76661;PMS5003;65579;45.534;6.212;2023-07-08T06:35:33;12;12;
76661;PMS5003;65579;45.534;6.212;2023-07-08T06:37:55;11;10;
76661;PMS5003;65579;45.534;6.212;2023-07-08T06:40:20;16;16;
76661;PMS5003;65579;45.534;6.212;2023-07-08T06:42:46;15;15;
76661;PMS5003;65579;45.534;6.212;2023-07-08T06:45:11;14;12;
76661;PMS5003;65579;45.534;6.212;2023-07-08T06:47:38;19;17;
76661;PMS5003;65579;45.534;6.212;2023-07-08T06:50:03;12;12;
76661;PMS5003;65579;45.534;6.212;2023-07-08T06:52:28;12;11;
76661;PMS5003;65579;45.534;6.212;2023-07-08T06:54:54;14;14;
76661;PMS5003;65579;45.534;6.212;2023-07-08T06:57:20;14;14;
76661;PMS5003;65579;45.534;6.212;2023-07-08T06:59:45;15;15;
76661;PMS5003;65579;45.534;6.212;2023-07-08T07:02:11;13;13;
76661;PMS5003;65579;45.534;6.212;2023-07-08T07:04:36;15;13;
76661;PMS5003;65579;45.534;6.212;2023-07-08T07:07:02;13;13;
76661;PMS5003;65579;45.534;6.212;2023-07-08T07:09:28;13;11;
76661;PMS5003;65579;45.534;6.212;2023-07-08T07:11:53;13;11;
76661;PMS5003;65579;45.534;6.212;2023-07-08T07:14:19;15;14;
76661;PMS5003;65579;45.534;6.212;2023-07-08T07:16:44;11;11;
76661;PMS5003;65579;45.534;6.212;2023-07-08T07:19:09;11;11;
76661;PMS5003;65579;45.534;6.212;2023-07-08T07:21:35;16;13;
76661;PMS5003;65579;45.534;6.212;2023-07-08T07:24:01;13;12;
76661;PMS5003;65579;45.534;6.212;2023-07-08T07:26:26;13;12;
76661;PMS5003;65579;45.534;6.212;2023-07-08T07:28:52;11;11;
76661;PMS5003;65579;45.534;6.212;2023-07-08T07:31:17;11;11;
76661;PMS5003;65579;45.534;6.212;2023-07-08T07:33:43;11;11;
76661;PMS5003;65579;45.534;6.212;2023-07-08T07:36:08;9;9;
76661;PMS5003;65579;45.534;6.212;2023-07-08T07:38:34;20;19;
76661;PMS5003;65579;45.534;6.212;2023-07-08T07:40:59;11;11;
76661;PMS5003;65579;45.534;6.212;2023-07-08T07:43:25;10;10;
76661;PMS5003;65579;45.534;6.212;2023-07-08T07:45:51;14;13;
76661;PMS5003;65579;45.534;6.212;2023-07-08T07:48:16;13;13;
76661;PMS5003;65579;45.534;6.212;2023-07-08T07:50:44;11;11;
76661;PMS5003;65579;45.534;6.212;2023-07-08T07:53:08;12;12;
76661;PMS5003;65579;45.534;6.212;2023-07-08T07:55:33;12;10;
76661;PMS5003;65579;45.534;6.212;2023-07-08T07:57:58;10;10;
76661;PMS5003;65579;45.534;6.212;2023-07-08T08:00:24;10;10;
76661;PMS5003;65579;45.534;6.212;2023-07-08T08:02:49;17;17;
76661;PMS5003;65579;45.534;6.212;2023-07-08T08:05:14;21;21;
76661;PMS5003;65579;45.534;6.212;2023-07-08T08:07:39;42;37;
76661;PMS5003;65579;45.534;6.212;2023-07-08T08:10:05;56;50;
76661;PMS5003;65579;45.534;6.212;2023-07-08T08:12:30;50;47;
76661;PMS5003;65579;45.534;6.212;2023-07-08T08:14:56;46;44;
76661;PMS5003;65579;45.534;6.212;2023-07-08T08:17:21;29;27;
76661;PMS5003;65579;45.534;6.212;2023-07-08T08:19:46;23;22;
76661;PMS5003;65579;45.534;6.212;2023-07-08T08:22:12;17;17;
76661;PMS5003;65579;45.534;6.212;2023-07-08T08:24:37;24;24;
76661;PMS5003;65579;45.534;6.212;2023-07-08T08:27:03;20;18;
76661;PMS5003;65579;45.534;6.212;2023-07-08T08:29:28;17;16;
76661;PMS5003;65579;45.534;6.212;2023-07-08T08:31:54;14;13;
76661;PMS5003;65579;45.534;6.212;2023-07-08T08:34:19;14;14;
76661;PMS5003;65579;45.534;6.212;2023-07-08T08:36:45;12;11;
76661;PMS5003;65579;45.534;6.212;2023-07-08T08:39:11;13;13;
76661;PMS5003;65579;45.534;6.212;2023-07-08T08:41:37;12;11;
76661;PMS5003;65579;45.534;6.212;2023-07-08T08:44:02;14;14;
76661;PMS5003;65579;45.534;6.212;2023-07-08T08:46:29;13;11;
76661;PMS5003;65579;45.534;6.212;2023-07-08T08:48:55;11;11;
76661;PMS5003;65579;45.534;6.212;2023-07-08T08:51:19;14;11;
76661;PMS5003;65579;45.534;6.212;2023-07-08T08:53:44;10;10;
76661;PMS5003;65579;45.534;6.212;2023-07-08T08:56:11;15;11;
76661;PMS5003;65579;45.534;6.212;2023-07-08T08:58:37;12;12;
76661;PMS5003;65579;45.534;6.212;2023-07-08T09:01:02;11;10;
76661;PMS5003;65579;45.534;6.212;2023-07-08T09:03:33;10;10;
76661;PMS5003;65579;45.534;6.212;2023-07-08T09:05:52;9;9;
76661;PMS5003;65579;45.534;6.212;2023-07-08T09:08:20;12;10;
76661;PMS5003;65579;45.534;6.212;2023-07-08T09:10:44;9;9;
76661;PMS5003;65579;45.534;6.212;2023-07-08T09:13:10;11;11;
76661;PMS5003;65579;45.534;6.212;2023-07-08T09:15:33;16;16;
76661;PMS5003;65579;45.534;6.212;2023-07-08T09:18:00;10;10;
76661;PMS5003;65579;45.534;6.212;2023-07-08T09:20:25;10;10;
76661;PMS5003;65579;45.534;6.212;2023-07-08T09:22:51;10;10;
76661;PMS5003;65579;45.534;6.212;2023-07-08T09:25:20;10;10;
76661;PMS5003;65579;45.534;6.212;2023-07-08T09:27:41;11;11;
76661;PMS5003;65579;45.534;6.212;2023-07-08T09:30:08;9;9;
76661;PMS5003;65579;45.534;6.212;2023-07-08T09:32:32;15;14;
76661;PMS5003;65579;45.534;6.212;2023-07-08T09:35:02;12;12;
76661;PMS5003;65579;45.534;6.212;2023-07-08T09:37:24;11;11;
76661;PMS5003;65579;45.534;6.212;2023-07-08T09:39:49;10;10;
76661;PMS5003;65579;45.534;6.212;2023-07-08T09:42:14;12;12;
76661;PMS5003;65579;45.534;6.212;2023-07-08T09:44:40;10;10;
76661;PMS5003;65579;45.534;6.212;2023-07-08T09:47:15;12;12;
76661;PMS5003;65579;45.534;6.212;2023-07-08T09:49:31;13;12;
76661;PMS5003;65579;45.534;6.212;2023-07-08T09:51:56;12;12;
76661;PMS5003;65579;45.534;6.212;2023-07-08T09:54:22;12;11;
76661;PMS5003;65579;45.534;6.212;2023-07-08T09:56:52;13;13;
76661;PMS5003;65579;45.534;6.212;2023-07-08T09:59:13;12;12;
76661;PMS5003;65579;45.534;6.212;2023-07-08T10:01:38;13;11;
76661;PMS5003;65579;45.534;6.212;2023-07-08T10:04:04;14;12;
76661;PMS5003;65579;45.534;6.212;2023-07-08T10:06:30;12;12;
76661;PMS5003;65579;45.534;6.212;2023-07-08T10:08:55;14;14;
76661;PMS5003;65579;45.534;6.212;2023-07-08T10:11:22;11;11;
76661;PMS5003;65579;45.534;6.212;2023-07-08T10:13:46;10;10;
76661;PMS5003;65579;45.534;6.212;2023-07-08T10:16:13;11;11;
76661;PMS5003;65579;45.534;6.212;2023-07-08T10:18:37;9;9;
76661;PMS5003;65579;45.534;6.212;2023-07-08T10:21:03;9;9;
76661;PMS5003;65579;45.534;6.212;2023-07-08T10:23:30;11;11;
76661;PMS5003;65579;45.534;6.212;2023-07-08T10:25:56;12;9;
76661;PMS5003;65579;45.534;6.212;2023-07-08T10:28:23;9;9;
76661;PMS5003;65579;45.534;6.212;2023-07-08T10:30:47;15;15;
76661;PMS5003;65579;45.534;6.212;2023-07-08T10:33:27;11;11;
76661;PMS5003;65579;45.534;6.212;2023-07-08T10:35:35;12;12;
76661;PMS5003;65579;45.534;6.212;2023-07-08T10:38:08;12;11;
76661;PMS5003;65579;45.534;6.212;2023-07-08T10:40:31;11;11;
76661;PMS5003;65579;45.534;6.212;2023-07-08T10:42:58;10;10;
76661;PMS5003;65579;45.534;6.212;2023-07-08T10:45:19;11;10;
76661;PMS5003;65579;45.534;6.212;2023-07-08T10:47:46;9;9;
76661;PMS5003;65579;45.534;6.212;2023-07-08T10:50:14;9;9;
76661;PMS5003;65579;45.534;6.212;2023-07-08T10:52:37;9;9;
76661;PMS5003;65579;45.534;6.212;2023-07-08T10:55:04;10;9;
76661;PMS5003;65579;45.534;6.212;2023-07-08T10:59:52;11;10;
76661;PMS5003;65579;45.534;6.212;2023-07-08T11:02:22;11;11;
76661;PMS5003;65579;45.534;6.212;2023-07-08T11:04:44;9;8;
76661;PMS5003;65579;45.534;6.212;2023-07-08T11:07:10;13;11;
76661;PMS5003;65579;45.534;6.212;2023-07-08T11:09:34;9;9;
76661;PMS5003;65579;45.534;6.212;2023-07-08T11:11:59;12;12;
76661;PMS5003;65579;45.534;6.212;2023-07-08T11:14:25;10;9;
76661;PMS5003;65579;45.534;6.212;2023-07-08T11:16:53;10;9;
76661;PMS5003;65579;45.534;6.212;2023-07-08T11:19:15;11;10;
76661;PMS5003;65579;45.534;6.212;2023-07-08T11:21:40;11;11;
76661;PMS5003;65579;45.534;6.212;2023-07-08T11:24:06;14;14;
76661;PMS5003;65579;45.534;6.212;2023-07-08T11:26:32;12;12;
76661;PMS5003;65579;45.534;6.212;2023-07-08T11:28:57;9;9;
76661;PMS5003;65579;45.534;6.212;2023-07-08T11:31:21;14;11;
76661;PMS5003;65579;45.534;6.212;2023-07-08T11:33:47;10;10;
76661;PMS5003;65579;45.534;6.212;2023-07-08T11:36:12;11;10;
76661;PMS5003;65579;45.534;6.212;2023-07-08T11:38:37;12;12;
76661;PMS5003;65579;45.534;6.212;2023-07-08T11:41:03;12;12;
76661;PMS5003;65579;45.534;6.212;2023-07-08T11:43:33;13;12;
76661;PMS5003;65579;45.534;6.212;2023-07-08T11:45:55;9;9;
76661;PMS5003;65579;45.534;6.212;2023-07-08T11:48:21;11;11;
76661;PMS5003;65579;45.534;6.212;2023-07-08T11:50:45;12;12;
76661;PMS5003;65579;45.534;6.212;2023-07-08T11:53:11;9;9;
76661;PMS5003;65579;45.534;6.212;2023-07-08T11:55:36;12;12;
76661;PMS5003;65579;45.534;6.212;2023-07-08T11:58:01;14;11;
76661;PMS5003;65579;45.534;6.212;2023-07-08T12:00:30;13;12;
76661;PMS5003;65579;45.534;6.212;2023-07-08T12:02:54;13;12;
76661;PMS5003;65579;45.534;6.212;2023-07-08T12:05:19;9;9;
76661;PMS5003;65579;45.534;6.212;2023-07-08T12:07:44;12;12;
76661;PMS5003;65579;45.534;6.212;2023-07-08T12:10:10;10;10;
76661;PMS5003;65579;45.534;6.212;2023-07-08T12:12:34;12;12;
76661;PMS5003;65579;45.534;6.212;2023-07-08T12:15:04;15;14;
76661;PMS5003;65579;45.534;6.212;2023-07-08T12:17:24;16;13;
76661;PMS5003;65579;45.534;6.212;2023-07-08T12:19:50;13;13;
76661;PMS5003;65579;45.534;6.212;2023-07-08T12:22:15;12;10;
76661;PMS5003;65579;45.534;6.212;2023-07-08T12:24:41;15;11;
76661;PMS5003;65579;45.534;6.212;2023-07-08T12:27:07;14;12;
76661;PMS5003;65579;45.534;6.212;2023-07-08T12:29:31;14;14;
76661;PMS5003;65579;45.534;6.212;2023-07-08T12:31:56;12;12;
76661;PMS5003;65579;45.534;6.212;2023-07-08T12:34:22;13;11;
76661;PMS5003;65579;45.534;6.212;2023-07-08T12:36:47;11;11;
76661;PMS5003;65579;45.534;6.212;2023-07-08T12:39:13;14;13;
76661;PMS5003;65579;45.534;6.212;2023-07-08T12:41:38;12;12;
76661;PMS5003;65579;45.534;6.212;2023-07-08T12:44:04;13;13;
76661;PMS5003;65579;45.534;6.212;2023-07-08T12:46:29;11;11;
76661;PMS5003;65579;45.534;6.212;2023-07-08T12:48:54;13;12;
76661;PMS5003;65579;45.534;6.212;2023-07-08T12:51:20;15;14;
76661;PMS5003;65579;45.534;6.212;2023-07-08T12:53:45;14;10;
76661;PMS5003;65579;45.534;6.212;2023-07-08T12:56:11;12;12;
76661;PMS5003;65579;45.534;6.212;2023-07-08T12:58:38;11;11;
76661;PMS5003;65579;45.534;6.212;2023-07-08T13:01:02;10;10;
76661;PMS5003;65579;45.534;6.212;2023-07-08T13:03:28;11;10;
76661;PMS5003;65579;45.534;6.212;2023-07-08T13:05:53;11;11;
76661;PMS5003;65579;45.534;6.212;2023-07-08T13:08:20;11;11;
76661;PMS5003;65579;45.534;6.212;2023-07-08T13:10:43;11;11;
76661;PMS5003;65579;45.534;6.212;2023-07-08T13:13:11;9;9;
76661;PMS5003;65579;45.534;6.212;2023-07-08T13:15:34;12;12;
76661;PMS5003;65579;45.534;6.212;2023-07-08T13:18:00;14;12;
76661;PMS5003;65579;45.534;6.212;2023-07-08T13:20:25;12;12;
76661;PMS5003;65579;45.534;6.212;2023-07-08T13:22:51;11;11;
76661;PMS5003;65579;45.534;6.212;2023-07-08T13:25:16;11;10;
76661;PMS5003;65579;45.534;6.212;2023-07-08T13:27:42;10;9;
76661;PMS5003;65579;45.534;6.212;2023-07-08T13:30:14;11;11;
76661;PMS5003;65579;45.534;6.212;2023-07-08T13:32:32;12;12;
76661;PMS5003;65579;45.534;6.212;2023-07-08T13:34:58;10;10;
76661;PMS5003;65579;45.534;6.212;2023-07-08T13:37:24;11;11;
76661;PMS5003;65579;45.534;6.212;2023-07-08T13:39:48;12;12;
76661;PMS5003;65579;45.534;6.212;2023-07-08T13:42:14;14;14;
76661;PMS5003;65579;45.534;6.212;2023-07-08T13:44:43;11;11;
76661;PMS5003;65579;45.534;6.212;2023-07-08T13:49:38;11;9;
76661;PMS5003;65579;45.534;6.212;2023-07-08T13:54:22;10;10;
76661;PMS5003;65579;45.534;6.212;2023-07-08T13:56:46;12;11;
76661;PMS5003;65579;45.534;6.212;2023-07-08T13:59:15;12;10;
76661;PMS5003;65579;45.534;6.212;2023-07-08T14:01:38;11;9;
76661;PMS5003;65579;45.534;6.212;2023-07-08T14:04:03;8;7;
76661;PMS5003;65579;45.534;6.212;2023-07-08T14:06:29;9;9;
76661;PMS5003;65579;45.534;6.212;2023-07-08T14:08:54;12;11;
76661;PMS5003;65579;45.534;6.212;2023-07-08T14:11:19;11;10;
76661;PMS5003;65579;45.534;6.212;2023-07-08T14:13:44;9;9;
76661;PMS5003;65579;45.534;6.212;2023-07-08T14:16:13;10;9;
76661;PMS5003;65579;45.534;6.212;2023-07-08T14:18:35;15;13;
76661;PMS5003;65579;45.534;6.212;2023-07-08T14:21:00;9;9;
76661;PMS5003;65579;45.534;6.212;2023-07-08T14:23:25;10;8;
76661;PMS5003;65579;45.534;6.212;2023-07-08T14:25:51;10;8;
76661;PMS5003;65579;45.534;6.212;2023-07-08T14:28:16;10;10;
76661;PMS5003;65579;45.534;6.212;2023-07-08T14:30:42;9;9;
76661;PMS5003;65579;45.534;6.212;2023-07-08T14:33:08;8;8;
76661;PMS5003;65579;45.534;6.212;2023-07-08T14:35:32;9;9;
76661;PMS5003;65579;45.534;6.212;2023-07-08T14:37:58;8;8;
76661;PMS5003;65579;45.534;6.212;2023-07-08T14:40:24;8;8;
76661;PMS5003;65579;45.534;6.212;2023-07-08T14:42:49;10;9;
76661;PMS5003;65579;45.534;6.212;2023-07-08T14:45:14;9;9;
76661;PMS5003;65579;45.534;6.212;2023-07-08T14:47:39;9;9;
76661;PMS5003;65579;45.534;6.212;2023-07-08T14:50:09;10;10;
76661;PMS5003;65579;45.534;6.212;2023-07-08T14:52:29;8;8;
76661;PMS5003;65579;45.534;6.212;2023-07-08T14:54:55;11;11;
76661;PMS5003;65579;45.534;6.212;2023-07-08T14:57:25;8;8;
76661;PMS5003;65579;45.534;6.212;2023-07-08T14:59:45;15;14;
76661;PMS5003;65579;45.534;6.212;2023-07-08T15:02:17;8;8;
76661;PMS5003;65579;45.534;6.212;2023-07-08T15:04:36;8;8;
76661;PMS5003;65579;45.534;6.212;2023-07-08T15:07:04;7;7;
76661;PMS5003;65579;45.534;6.212;2023-07-08T15:09:27;9;9;
76661;PMS5003;65579;45.534;6.212;2023-07-08T15:11:53;11;8;
76661;PMS5003;65579;45.534;6.212;2023-07-08T15:14:19;8;8;
76661;PMS5003;65579;45.534;6.212;2023-07-08T15:16:43;9;9;
76661;PMS5003;65579;45.534;6.212;2023-07-08T15:19:09;9;9;
76661;PMS5003;65579;45.534;6.212;2023-07-08T15:21:34;12;11;
76661;PMS5003;65579;45.534;6.212;2023-07-08T15:24:00;8;7;
76661;PMS5003;65579;45.534;6.212;2023-07-08T15:26:25;11;9;
76661;PMS5003;65579;45.534;6.212;2023-07-08T15:28:50;7;7;
76661;PMS5003;65579;45.534;6.212;2023-07-08T15:31:16;8;8;
76661;PMS5003;65579;45.534;6.212;2023-07-08T15:33:42;7;7;
76661;PMS5003;65579;45.534;6.212;2023-07-08T15:36:06;9;9;
76661;PMS5003;65579;45.534;6.212;2023-07-08T15:38:31;11;11;
76661;PMS5003;65579;45.534;6.212;2023-07-08T15:40:56;9;9;
76661;PMS5003;65579;45.534;6.212;2023-07-08T15:43:22;8;8;
76661;PMS5003;65579;45.534;6.212;2023-07-08T15:45:47;8;8;
76661;PMS5003;65579;45.534;6.212;2023-07-08T15:48:13;8;8;
76661;PMS5003;65579;45.534;6.212;2023-07-08T15:50:39;8;7;
76661;PMS5003;65579;45.534;6.212;2023-07-08T15:53:05;9;8;
76661;PMS5003;65579;45.534;6.212;2023-07-08T15:55:29;8;8;
76661;PMS5003;65579;45.534;6.212;2023-07-08T15:57:55;12;12;
76661;PMS5003;65579;45.534;6.212;2023-07-08T16:00:22;7;7;
76661;PMS5003;65579;45.534;6.212;2023-07-08T16:02:45;10;10;
76661;PMS5003;65579;45.534;6.212;2023-07-08T16:05:11;10;10;
76661;PMS5003;65579;45.534;6.212;2023-07-08T16:07:36;7;7;
76661;PMS5003;65579;45.534;6.212;2023-07-08T16:10:02;8;8;
76661;PMS5003;65579;45.534;6.212;2023-07-08T16:12:27;8;7;
76661;PMS5003;65579;45.534;6.212;2023-07-08T16:14:52;9;8;
76661;PMS5003;65579;45.534;6.212;2023-07-08T16:17:18;9;9;
76661;PMS5003;65579;45.534;6.212;2023-07-08T16:19:43;10;10;